Time;durP1;ratioP1;P1;durP2;ratioP2;P2;SDS_P1;SDS_P2;PMS_P1;PMS_P2;Temp;Humidity;BMP_temperature;BMP_pressure;BME280_temperature;BME280_humidity;BME280_pressure;Samples;Min_cycle;Max_cycle;Signal;HPM_P1;HPM_P2
2023/02/12 00:01:18;;;;;;;54.95;28.17;;;4.70;99.90;;;;;;5062757;28;20037;-67
2023/02/12 00:03:45;;;;;;;54.55;28.77;;;4.80;99.90;;;;;;5052800;28;20442;-63
2023/02/12 00:06:13;;;;;;;52.80;27.02;;;4.80;99.90;;;;;;5070230;28;20040;-63
2023/02/12 00:08:42;;;;;;;49.92;26.45;;;4.80;99.90;;;;;;5070463;28;20530;-66
2023/02/12 00:11:11;;;;;;;48.88;27.02;;;4.80;99.90;;;;;;5070748;28;20041;-64
2023/02/12 00:13:39;;;;;;;46.20;25.70;;;4.80;99.90;;;;;;5072734;28;20514;-64
2023/02/12 00:16:09;;;;;;;51.53;28.27;;;4.80;99.90;;;;;;5074373;28;20124;-64
2023/02/12 00:18:37;;;;;;;49.20;27.70;;;4.80;99.90;;;;;;5073777;28;20437;-64
2023/02/12 00:21:07;;;;;;;54.15;27.83;;;4.80;99.90;;;;;;5073000;28;20547;-64
2023/02/12 00:23:36;;;;;;;50.40;25.13;;;4.90;99.90;;;;;;5073673;28;20052;-63
2023/02/12 00:26:06;;;;;;;55.70;29.13;;;4.90;99.90;;;;;;5073991;28;20505;-64
2023/02/12 00:28:34;;;;;;;45.00;26.38;;;4.90;99.90;;;;;;5060403;28;20094;-64
2023/02/12 00:31:14;;;;;;;50.47;28.13;;;4.90;99.90;;;;;;5073840;28;20524;-63
2023/02/12 00:33:42;;;;;;;50.70;25.88;;;4.90;99.90;;;;;;5062195;28;20048;-64
2023/02/12 00:36:14;;;;;;;51.60;26.70;;;4.90;99.90;;;;;;5066532;28;20517;-63
2023/02/12 00:38:42;;;;;;;50.45;28.05;;;4.90;99.90;;;;;;5041300;28;20043;-63
2023/02/12 00:41:09;;;;;;;50.63;25.92;;;4.90;99.90;;;;;;5062286;28;20522;-65
2023/02/12 00:43:37;;;;;;;50.17;26.65;;;4.90;99.90;;;;;;5066482;28;20035;-64
2023/02/12 00:46:05;;;;;;;52.65;26.85;;;4.90;99.90;;;;;;5073713;28;20071;-64
2023/02/12 00:48:34;;;;;;;53.97;27.75;;;4.90;99.90;;;;;;5072183;28;20033;-63
2023/02/12 00:51:02;;;;;;;57.53;28.20;;;4.90;99.90;;;;;;5055074;28;20068;-65
2023/02/12 00:53:30;;;;;;;50.13;26.10;;;4.90;99.90;;;;;;5073655;28;20079;-63
2023/02/12 00:55:57;;;;;;;55.53;27.80;;;4.90;99.90;;;;;;5072946;28;20040;-63
2023/02/12 00:58:25;;;;;;;49.67;25.83;;;4.90;99.90;;;;;;5072499;28;20098;-63
2023/02/12 01:00:52;;;;;;;49.38;26.77;;;4.80;99.90;;;;;;5073441;28;20495;-64
2023/02/12 01:03:22;;;;;;;49.90;26.90;;;4.80;99.90;;;;;;5076355;28;20060;-65
2023/02/12 01:05:52;;;;;;;49.63;26.55;;;4.80;99.90;;;;;;5064786;28;20140;-66
2023/02/12 01:08:20;;;;;;;50.75;26.85;;;4.80;99.90;;;;;;5064283;28;20135;-66
2023/02/12 01:11:00;;;;;;;48.53;26.80;;;4.80;99.90;;;;;;5073008;28;20052;-64
2023/02/12 01:13:29;;;;;;;45.03;26.15;;;4.80;99.90;;;;;;5073625;28;20477;-66
2023/02/12 01:16:09;;;;;;;50.33;26.92;;;4.80;99.90;;;;;;5058555;28;20396;-63
2023/02/12 01:18:37;;;;;;;51.97;26.60;;;4.80;99.90;;;;;;5073312;28;20045;-66
2023/02/12 01:21:25;;;;;;;50.42;26.35;;;4.80;99.90;;;;;;5071941;28;20040;-64
2023/02/12 01:23:54;;;;;;;51.47;26.83;;;4.80;99.90;;;;;;5072297;28;20430;-65
2023/02/12 01:26:23;;;;;;;49.22;25.45;;;4.80;99.90;;;;;;5071180;28;20052;-64
2023/02/12 01:28:54;;;;;;;51.90;27.27;;;4.80;99.90;;;;;;5072993;28;20033;-63
2023/02/12 01:31:24;;;;;;;51.35;26.42;;;4.80;99.90;;;;;;5073288;28;20048;-64
2023/02/12 01:33:54;;;;;;;48.20;25.88;;;4.80;99.90;;;;;;5075470;28;20048;-63
2023/02/12 01:36:22;;;;;;;48.35;26.50;;;4.80;99.90;;;;;;5066029;28;20382;-64
2023/02/12 01:38:50;;;;;;;50.17;26.90;;;4.80;99.90;;;;;;5072974;28;20043;-64
2023/02/12 01:41:23;;;;;;;49.60;26.35;;;4.80;99.90;;;;;;5073020;28;20094;-64
2023/02/12 01:44:17;;;;;;;54.50;28.50;;;4.80;99.90;;;;;;5056242;28;20411;-64
2023/02/12 01:46:48;;;;;;;49.20;26.92;;;4.80;99.90;;;;;;5048463;28;20059;-64
2023/02/12 01:49:23;;;;;;;52.13;26.60;;;4.80;99.90;;;;;;5060919;28;20353;-63
2023/02/12 01:52:14;;;;;;;48.72;26.45;;;4.80;99.90;;;;;;5088399;28;20063;-65
2023/02/12 01:54:42;;;;;;;51.78;27.27;;;4.80;99.90;;;;;;5063824;28;20135;-66
2023/02/12 01:57:13;;;;;;;53.63;26.60;;;4.80;99.90;;;;;;5088313;28;20159;-64
2023/02/12 01:59:44;;;;;;;53.03;27.52;;;4.70;99.90;;;;;;5087548;28;20047;-63
2023/02/12 02:02:11;;;;;;;52.85;26.27;;;4.70;99.90;;;;;;5073105;28;20045;-64
2023/02/12 02:04:50;;;;;;;51.30;27.83;;;4.70;99.90;;;;;;5071064;28;20119;-66
2023/02/12 02:07:18;;;;;;;53.75;26.10;;;4.80;99.90;;;;;;5047803;28;20462;-64
2023/02/12 02:09:45;;;;;;;52.33;26.65;;;4.70;99.90;;;;;;5047912;28;20041;-64
2023/02/12 02:14:59;;;;;;;52.13;26.63;;;4.70;99.90;;;;;;5051028;28;20041;-65
2023/02/12 02:18:00;;;;;;;52.50;26.27;;;4.70;99.90;;;;;;5051225;28;20119;-65
2023/02/12 02:20:46;;;;;;;48.28;25.48;;;4.70;99.90;;;;;;5050405;28;20040;-64
2023/02/12 02:23:28;;;;;;;57.08;28.50;;;4.70;99.90;;;;;;5046734;28;20461;-63
2023/02/12 02:26:14;;;;;;;50.63;27.02;;;4.70;99.90;;;;;;5040472;28;20071;-64
2023/02/12 02:28:55;;;;;;;55.58;28.05;;;4.70;99.90;;;;;;5048843;28;20044;-63
2023/02/12 02:31:32;;;;;;;53.13;28.58;;;4.80;99.90;;;;;;5052273;28;20373;-64
2023/02/12 02:34:08;;;;;;;56.70;27.42;;;4.80;99.90;;;;;;5043295;28;20059;-65
2023/02/12 02:36:53;;;;;;;51.67;27.10;;;4.80;99.90;;;;;;5050622;28;20041;-64
2023/02/12 02:40:10;;;;;;;56.15;26.77;;;4.80;99.90;;;;;;5046716;28;20072;-64
2023/02/12 02:42:57;;;;;;;48.33;25.90;;;4.80;99.90;;;;;;5019958;28;20420;-64
2023/02/12 02:45:33;;;;;;;51.55;25.90;;;4.80;99.90;;;;;;5029492;28;20068;-65
2023/02/12 02:48:10;;;;;;;55.70;26.92;;;4.80;99.90;;;;;;5032397;28;20064;-63
2023/02/12 02:50:43;;;;;;;56.50;29.10;;;4.80;99.90;;;;;;5040501;28;20044;-64
2023/02/12 02:53:20;;;;;;;51.58;26.45;;;4.80;99.90;;;;;;5031143;28;20488;-65
2023/02/12 02:55:52;;;;;;;51.65;27.52;;;4.80;99.90;;;;;;5029703;28;20555;-65
2023/02/12 02:58:28;;;;;;;51.97;27.70;;;4.80;99.90;;;;;;5018518;28;20112;-64
2023/02/12 03:01:03;;;;;;;52.97;27.48;;;4.80;99.90;;;;;;5029777;28;20459;-64
2023/02/12 03:03:49;;;;;;;56.83;29.10;;;4.80;99.90;;;;;;5030579;28;20043;-65
2023/02/12 03:06:57;;;;;;;55.22;28.35;;;4.80;99.90;;;;;;5029968;28;20045;-65
2023/02/12 03:09:44;;;;;;;56.38;27.13;;;4.80;99.90;;;;;;5013790;28;20045;-66
2023/02/12 03:12:17;;;;;;;53.58;28.02;;;4.90;99.90;;;;;;5031779;28;20129;-63
2023/02/12 03:14:56;;;;;;;55.17;28.13;;;4.80;99.90;;;;;;5041212;28;20041;-64
2023/02/12 03:17:33;;;;;;;56.05;28.30;;;4.80;99.90;;;;;;5049184;28;20522;-63
2023/02/12 03:20:35;;;;;;;51.70;26.95;;;4.80;99.90;;;;;;5041005;28;20091;-63
2023/02/12 03:23:10;;;;;;;55.65;27.40;;;4.80;99.90;;;;;;5040203;28;20403;-64
2023/02/12 03:25:48;;;;;;;56.08;27.13;;;4.80;99.90;;;;;;5049994;28;20524;-64
2023/02/12 03:28:20;;;;;;;57.50;28.63;;;4.80;99.90;;;;;;5050093;28;20041;-66
2023/02/12 03:30:52;;;;;;;57.13;28.75;;;4.80;99.90;;;;;;5039048;28;20076;-64
2023/02/12 03:33:40;;;;;;;55.53;27.88;;;4.80;99.90;;;;;;5040388;28;20041;-63
2023/02/12 03:36:36;;;;;;;47.08;26.30;;;4.80;99.90;;;;;;5048283;28;20053;-64
2023/02/12 03:39:16;;;;;;;56.92;28.88;;;4.70;99.90;;;;;;5028958;28;20045;-64
2023/02/12 03:41:54;;;;;;;51.17;26.52;;;4.70;99.90;;;;;;5035449;28;20033;-63
2023/02/12 03:44:46;;;;;;;54.97;27.30;;;4.70;99.90;;;;;;5050449;28;20032;-63
2023/02/12 03:47:35;;;;;;;55.08;28.50;;;4.70;99.90;;;;;;5040019;28;20064;-64
2023/02/12 03:50:24;;;;;;;52.58;27.88;;;4.70;99.90;;;;;;5038446;28;20132;-64
2023/02/12 03:52:52;;;;;;;56.75;28.00;;;4.70;99.90;;;;;;5036356;28;20041;-65
2023/02/12 03:55:19;;;;;;;61.58;30.02;;;4.70;99.90;;;;;;5046789;28;20492;-65
2023/02/12 03:57:59;;;;;;;61.38;29.05;;;4.80;99.90;;;;;;5049896;28;20578;-63
2023/02/12 04:00:27;;;;;;;62.20;29.13;;;4.70;99.90;;;;;;5050558;28;20037;-64
2023/02/12 04:02:54;;;;;;;60.05;29.65;;;4.70;99.90;;;;;;5049374;28;20446;-64
2023/02/12 04:05:24;;;;;;;60.92;29.05;;;4.70;99.90;;;;;;5047894;28;20047;-64
2023/02/12 04:07:54;;;;;;;56.58;28.25;;;4.70;99.90;;;;;;5049738;28;20137;-64
2023/02/12 04:10:30;;;;;;;57.03;29.20;;;4.70;99.90;;;;;;5050100;28;20041;-65
2023/02/12 04:13:27;;;;;;;58.28;28.92;;;4.70;99.90;;;;;;5050827;28;20530;-65
2023/02/12 04:16:01;;;;;;;61.80;31.55;;;4.70;99.90;;;;;;5050963;28;20392;-64
2023/02/12 04:18:45;;;;;;;63.78;31.70;;;4.70;99.90;;;;;;5047455;28;20077;-64
2023/02/12 04:21:44;;;;;;;59.50;29.88;;;4.80;99.90;;;;;;5047761;28;20040;-65
2023/02/12 04:24:48;;;;;;;55.80;28.55;;;4.80;99.90;;;;;;5036474;28;20056;-64
2023/02/12 04:27:22;;;;;;;56.38;27.67;;;4.80;99.90;;;;;;5043988;28;20069;-65
2023/02/12 04:30:25;;;;;;;57.03;28.52;;;4.80;99.90;;;;;;5046218;28;20143;-64
2023/02/12 04:32:59;;;;;;;61.97;29.75;;;4.80;99.90;;;;;;5038373;28;20041;-65
2023/02/12 04:35:26;;;;;;;55.17;28.70;;;4.80;99.90;;;;;;5048446;28;20068;-64
2023/02/12 04:38:07;;;;;;;57.67;28.55;;;4.80;99.90;;;;;;5041725;28;20053;-64
2023/02/12 04:40:37;;;;;;;55.00;27.55;;;4.80;99.90;;;;;;5030387;28;20472;-64
2023/02/12 04:43:04;;;;;;;57.67;29.05;;;4.80;99.90;;;;;;5029436;28;20492;-64
2023/02/12 04:45:34;;;;;;;61.78;28.27;;;4.80;99.90;;;;;;5030666;28;20443;-64
2023/02/12 04:48:03;;;;;;;54.45;28.00;;;4.80;99.90;;;;;;5037703;28;20043;-64
2023/02/12 04:50:39;;;;;;;57.75;30.40;;;4.70;99.90;;;;;;5038607;28;20041;-64
2023/02/12 04:53:07;;;;;;;62.05;29.23;;;4.70;99.90;;;;;;5028783;28;20151;-63
2023/02/12 04:55:35;;;;;;;58.20;29.35;;;4.70;99.90;;;;;;5029278;28;20496;-65
2023/02/12 04:58:03;;;;;;;64.28;29.60;;;4.70;99.90;;;;;;5029654;28;20045;-64
2023/02/12 05:00:30;;;;;;;66.07;29.50;;;4.70;99.90;;;;;;5043323;28;20041;-64
2023/02/12 05:02:57;;;;;;;62.60;30.48;;;4.70;99.90;;;;;;5046921;28;20060;-64
2023/02/12 05:05:25;;;;;;;62.25;29.67;;;4.70;99.90;;;;;;5051451;28;20041;-65
2023/02/12 05:07:52;;;;;;;57.92;30.00;;;4.70;99.90;;;;;;5046913;28;20041;-65
2023/02/12 05:10:19;;;;;;;64.18;29.85;;;4.70;99.90;;;;;;5052570;28;20091;-64
2023/02/12 05:12:47;;;;;;;59.03;29.60;;;4.70;99.90;;;;;;5053109;28;20124;-64
2023/02/12 05:15:14;;;;;;;63.55;31.52;;;4.60;99.90;;;;;;5049545;28;20460;-63
2023/02/12 05:17:42;;;;;;;61.53;31.23;;;4.60;99.90;;;;;;5031947;28;20578;-64
2023/02/12 05:20:09;;;;;;;64.45;30.05;;;4.60;99.90;;;;;;5032611;28;20222;-64
2023/02/12 05:22:37;;;;;;;64.95;30.77;;;4.60;99.90;;;;;;5051529;28;20419;-64
2023/02/12 05:25:05;;;;;;;63.92;31.35;;;4.60;99.90;;;;;;5051604;28;20041;-65
2023/02/12 05:27:32;;;;;;;63.45;30.55;;;4.60;99.90;;;;;;5047077;28;20036;-64
2023/02/12 05:29:59;;;;;;;62.85;29.92;;;4.60;99.90;;;;;;5051808;28;20045;-63
2023/02/12 05:32:26;;;;;;;62.13;31.92;;;4.60;99.90;;;;;;5040602;28;20053;-64
2023/02/12 05:34:54;;;;;;;61.45;30.58;;;4.60;99.90;;;;;;5045573;28;20065;-65
2023/02/12 05:37:21;;;;;;;65.93;30.85;;;4.60;99.90;;;;;;5030082;28;20045;-63
2023/02/12 05:39:49;;;;;;;66.15;31.67;;;4.60;99.90;;;;;;5034194;28;20049;-63
2023/02/12 05:42:16;;;;;;;61.25;31.67;;;4.60;99.90;;;;;;5051397;28;20041;-64
2023/02/12 05:44:43;;;;;;;59.60;30.20;;;4.60;99.90;;;;;;5048445;28;20544;-65
2023/02/12 05:47:11;;;;;;;63.58;31.63;;;4.70;99.90;;;;;;5031656;28;20464;-64
2023/02/12 05:49:38;;;;;;;67.22;29.42;;;4.70;99.90;;;;;;5038861;28;20147;-64
2023/02/12 05:52:05;;;;;;;58.63;29.75;;;4.70;99.90;;;;;;5052956;28;20496;-64
2023/02/12 05:54:33;;;;;;;61.28;30.20;;;4.70;99.90;;;;;;5032469;28;20050;-64
2023/02/12 05:57:00;;;;;;;61.03;29.52;;;4.70;99.90;;;;;;5031890;28;20523;-64
2023/02/12 05:59:27;;;;;;;62.70;30.75;;;4.80;99.90;;;;;;5031889;28;20128;-65
2023/02/12 06:01:55;;;;;;;61.60;28.67;;;4.70;99.90;;;;;;5036078;28;20033;-63
2023/02/12 06:04:25;;;;;;;63.63;30.25;;;4.80;99.90;;;;;;5048309;28;20064;-64
2023/02/12 06:06:54;;;;;;;67.30;31.60;;;4.80;99.90;;;;;;5037804;28;20053;-64
2023/02/12 06:09:22;;;;;;;66.00;33.10;;;4.70;99.90;;;;;;5042380;28;20432;-64
2023/02/12 06:11:50;;;;;;;62.22;30.98;;;4.70;99.90;;;;;;5045695;28;20049;-64
2023/02/12 06:14:19;;;;;;;64.95;30.83;;;4.70;99.90;;;;;;5051923;28;20049;-65
2023/02/12 06:16:49;;;;;;;61.38;31.00;;;4.80;99.90;;;;;;5051216;28;20513;-63
2023/02/12 06:19:17;;;;;;;67.00;31.70;;;4.80;99.90;;;;;;5052638;28;20072;-64
2023/02/12 06:21:45;;;;;;;68.60;32.10;;;4.80;99.90;;;;;;5051658;28;20048;-64
2023/02/12 06:24:14;;;;;;;63.63;30.35;;;4.80;99.90;;;;;;5049632;28;20442;-63
2023/02/12 06:26:42;;;;;;;64.32;30.08;;;4.80;99.90;;;;;;5059578;28;20045;-65
2023/02/12 06:29:10;;;;;;;62.22;31.15;;;4.80;99.90;;;;;;5030299;28;20073;-65
2023/02/12 06:31:37;;;;;;;60.50;30.58;;;4.80;99.90;;;;;;5035152;28;20531;-64
2023/02/12 06:34:09;;;;;;;66.82;30.73;;;4.90;99.90;;;;;;5047602;28;20407;-65
2023/02/12 06:36:43;;;;;;;62.95;30.70;;;4.90;99.90;;;;;;5050292;28;20437;-65
2023/02/12 06:39:12;;;;;;;65.07;31.75;;;4.90;99.90;;;;;;5046392;28;20133;-64
2023/02/12 06:41:40;;;;;;;59.83;30.42;;;4.90;99.90;;;;;;5062796;28;20041;-64
2023/02/12 06:44:07;;;;;;;64.63;31.55;;;4.90;99.90;;;;;;5048863;28;20048;-65
2023/02/12 06:46:34;;;;;;;67.45;30.58;;;4.90;99.90;;;;;;5049147;28;20057;-63
2023/02/12 06:49:02;;;;;;;67.97;31.73;;;4.90;99.90;;;;;;5049563;28;20040;-65
2023/02/12 06:51:30;;;;;;;62.20;30.83;;;4.90;99.90;;;;;;5050186;28;20049;-64
2023/02/12 06:53:57;;;;;;;66.30;32.60;;;4.90;99.90;;;;;;5040638;28;20080;-64
2023/02/12 06:56:26;;;;;;;67.63;33.78;;;4.90;99.90;;;;;;5030064;28;20052;-64
2023/02/12 06:58:56;;;;;;;68.65;32.75;;;4.90;99.90;;;;;;5038819;28;20432;-65
2023/02/12 07:01:26;;;;;;;71.18;31.50;;;5.00;99.90;;;;;;5050319;28;20472;-64
2023/02/12 07:03:57;;;;;;;66.35;32.17;;;5.00;99.90;;;;;;5050736;28;20067;-65
2023/02/12 07:06:25;;;;;;;68.10;32.90;;;4.90;99.90;;;;;;5065573;28;20067;-64
2023/02/12 07:08:53;;;;;;;65.90;32.25;;;4.90;99.90;;;;;;5036868;28;20041;-64
2023/02/12 07:11:28;;;;;;;66.47;32.28;;;4.90;99.90;;;;;;5030418;28;20041;-65
2023/02/12 07:13:56;;;;;;;70.68;32.58;;;4.90;99.90;;;;;;5030736;28;20045;-64
2023/02/12 07:16:23;;;;;;;61.33;31.13;;;4.90;99.90;;;;;;5031303;28;20550;-68
2023/02/12 07:18:50;;;;;;;65.10;32.22;;;4.90;99.90;;;;;;5043410;28;20466;-65
2023/02/12 07:21:18;;;;;;;68.50;31.65;;;5.00;99.90;;;;;;5049141;28;20167;-64
2023/02/12 07:23:47;;;;;;;67.13;33.22;;;5.00;99.90;;;;;;5046264;28;20549;-64
2023/02/12 07:26:19;;;;;;;61.20;31.73;;;4.90;99.90;;;;;;5029687;28;20037;-66
2023/02/12 07:28:47;;;;;;;67.78;32.72;;;5.00;99.90;;;;;;5028711;28;20038;-66
2023/02/12 07:31:19;;;;;;;66.93;32.97;;;5.00;99.90;;;;;;5056500;28;20128;-64
2023/02/12 07:33:48;;;;;;;63.92;32.10;;;5.10;99.90;;;;;;5042122;28;20522;-65
2023/02/12 07:36:18;;;;;;;61.63;31.80;;;5.10;99.90;;;;;;5036050;28;20099;-63
2023/02/12 07:38:45;;;;;;;64.60;30.95;;;5.20;99.90;;;;;;5030481;28;20064;-65
2023/02/12 07:41:16;;;;;;;59.83;31.58;;;5.30;99.90;;;;;;5043416;28;20043;-63
2023/02/12 07:43:44;;;;;;;67.40;33.70;;;5.30;99.90;;;;;;5039354;28;20440;-64
2023/02/12 07:46:25;;;;;;;65.13;31.45;;;5.30;99.90;;;;;;5044284;28;20128;-64
2023/02/12 07:48:53;;;;;;;60.85;30.13;;;5.40;99.90;;;;;;5050302;28;20055;-64
2023/02/12 07:51:20;;;;;;;61.78;32.00;;;5.40;99.90;;;;;;5049521;28;20075;-65
2023/02/12 07:53:48;;;;;;;66.28;32.45;;;5.50;99.90;;;;;;5050337;28;20053;-64
2023/02/12 07:56:18;;;;;;;59.05;29.60;;;5.50;99.90;;;;;;5049849;28;20041;-64
2023/02/12 07:58:48;;;;;;;65.22;31.35;;;5.60;99.90;;;;;;5049439;28;20048;-63
2023/02/12 08:01:19;;;;;;;64.25;31.15;;;5.70;99.90;;;;;;5039133;28;20048;-64
2023/02/12 08:03:48;;;;;;;59.20;30.67;;;5.80;99.90;;;;;;5030974;28;20038;-65
2023/02/12 08:06:21;;;;;;;64.30;30.67;;;5.90;99.90;;;;;;5029951;28;20038;-65
2023/02/12 08:08:55;;;;;;;60.80;30.40;;;6.00;99.90;;;;;;5045589;28;20136;-64
2023/02/12 08:11:23;;;;;;;57.60;30.80;;;6.00;99.90;;;;;;5031233;28;20048;-65
2023/02/12 08:13:50;;;;;;;62.97;31.88;;;5.90;99.90;;;;;;5029836;28;20500;-64
2023/02/12 08:16:20;;;;;;;60.15;29.92;;;5.90;99.90;;;;;;5029340;28;20488;-65
2023/02/12 08:18:48;;;;;;;57.28;30.08;;;6.10;99.90;;;;;;5052128;28;20048;-64
2023/02/12 08:21:24;;;;;;;58.03;29.20;;;6.10;99.90;;;;;;5056990;28;20365;-65
2023/02/12 08:23:56;;;;;;;58.85;29.77;;;6.30;99.90;;;;;;5024797;28;20044;-64
2023/02/12 08:26:28;;;;;;;68.35;31.85;;;6.40;99.90;;;;;;5050302;28;20496;-65
2023/02/12 08:29:17;;;;;;;56.75;29.92;;;6.60;99.90;;;;;;5040516;28;20037;-65
2023/02/12 08:31:47;;;;;;;62.30;31.90;;;6.70;99.90;;;;;;5044376;28;20124;-64
2023/02/12 08:34:20;;;;;;;58.58;30.83;;;6.80;99.90;;;;;;5052664;28;20110;-63
2023/02/12 08:36:50;;;;;;;66.13;33.17;;;7.00;99.90;;;;;;5057319;28;20044;-64
2023/02/12 08:39:18;;;;;;;63.75;31.55;;;7.10;99.90;;;;;;5071061;28;20072;-63
2023/02/12 08:41:46;;;;;;;60.95;32.33;;;7.10;99.90;;;;;;5071754;28;20052;-64
2023/02/12 08:44:15;;;;;;;60.58;31.42;;;7.30;99.90;;;;;;5052758;28;20055;-65
2023/02/12 08:46:45;;;;;;;52.40;29.02;;;7.50;99.90;;;;;;5069023;28;20048;-64
2023/02/12 08:49:16;;;;;;;57.45;29.98;;;7.70;99.90;;;;;;5067819;28;20136;-64
2023/02/12 08:51:47;;;;;;;57.67;29.80;;;7.80;99.90;;;;;;5046087;28;20059;-64
2023/02/12 08:54:17;;;;;;;65.32;30.30;;;8.00;99.90;;;;;;5070841;28;20051;-64
2023/02/12 08:56:44;;;;;;;51.92;28.65;;;8.20;99.90;;;;;;5071839;28;20051;-65
2023/02/12 08:59:13;;;;;;;57.05;30.23;;;8.40;99.90;;;;;;5071859;28;20115;-65
2023/02/12 09:01:41;;;;;;;54.13;28.55;;;8.60;99.90;;;;;;5079040;28;20516;-64
2023/02/12 09:04:17;;;;;;;57.60;29.60;;;8.90;99.90;;;;;;5063264;28;20122;-64
2023/02/12 09:06:45;;;;;;;57.50;29.85;;;9.10;99.90;;;;;;5064348;28;20037;-68
2023/02/12 09:09:13;;;;;;;58.40;28.00;;;9.00;99.90;;;;;;5052402;28;20043;-63
2023/02/12 09:11:41;;;;;;;51.78;26.90;;;8.80;99.90;;;;;;5072889;28;20046;-64
2023/02/12 09:14:13;;;;;;;54.20;28.48;;;8.60;99.90;;;;;;5057499;28;20049;-65
2023/02/12 09:16:41;;;;;;;52.92;28.52;;;8.40;99.90;;;;;;5040442;28;20131;-67
2023/02/12 09:19:11;;;;;;;58.42;29.90;;;8.30;99.90;;;;;;5062606;28;20041;-64
2023/02/12 09:21:39;;;;;;;50.35;27.70;;;8.30;99.90;;;;;;5071905;28;20058;-64
2023/02/12 09:24:07;;;;;;;60.92;30.70;;;8.20;99.90;;;;;;5084858;28;20116;-64
2023/02/12 09:26:35;;;;;;;58.50;29.42;;;8.10;99.90;;;;;;5059410;28;20388;-65
2023/02/12 09:29:05;;;;;;;56.00;29.17;;;8.10;99.90;;;;;;5073033;28;20148;-65
2023/02/12 09:31:32;;;;;;;60.50;29.92;;;7.90;99.90;;;;;;5063609;28;20033;-65
2023/02/12 09:34:02;;;;;;;60.72;29.65;;;7.80;99.90;;;;;;5056988;28;20387;-69
2023/02/12 09:36:30;;;;;;;60.88;30.73;;;7.60;99.90;;;;;;5054971;28;20043;-65
2023/02/12 09:38:59;;;;;;;57.03;29.80;;;7.60;99.90;;;;;;5059700;28;20041;-64
2023/02/12 09:41:48;;;;;;;60.45;30.38;;;7.70;99.90;;;;;;5071999;28;20044;-65
2023/02/12 09:44:59;;;;;;;58.83;30.48;;;7.70;99.90;;;;;;5072832;28;20077;-64
2023/02/12 09:47:58;;;;;;;57.10;28.52;;;7.50;99.90;;;;;;5050938;28;20105;-65
2023/02/12 09:50:58;;;;;;;58.03;29.02;;;7.60;99.90;;;;;;5051770;28;20089;-65
2023/02/12 09:53:29;;;;;;;59.28;28.60;;;7.60;99.90;;;;;;5071725;28;20400;-64
2023/02/12 09:55:56;;;;;;;64.50;29.30;;;7.60;99.90;;;;;;5063357;28;20054;-63
2023/02/12 09:58:34;;;;;;;62.00;30.13;;;7.50;99.90;;;;;;5072238;28;20091;-65
2023/02/12 10:01:11;;;;;;;57.92;29.00;;;7.60;99.90;;;;;;5058066;28;20585;-64
2023/02/12 10:03:40;;;;;;;59.40;30.48;;;7.70;99.90;;;;;;5067776;28;20549;-63
2023/02/12 10:06:14;;;;;;;56.78;27.58;;;7.80;99.90;;;;;;5071729;28;20036;-64
2023/02/12 10:09:09;;;;;;;58.92;30.45;;;8.00;99.90;;;;;;5070538;28;20048;-65
2023/02/12 10:11:52;;;;;;;61.53;30.70;;;8.10;99.90;;;;;;5057303;28;20434;-64
2023/02/12 10:15:01;;;;;;;46.25;22.55;;;8.30;99.90;;;;;;5072270;28;20407;-64
2023/02/12 10:18:01;;;;;;;36.92;17.92;;;8.50;99.90;;;;;;5047906;28;20064;-64
2023/02/12 10:20:49;;;;;;;23.42;12.75;;;8.70;99.90;;;;;;5052246;28;20040;-64
2023/02/12 10:23:52;;;;;;;20.25;11.07;;;8.80;99.90;;;;;;5059287;28;20546;-64
2023/02/12 10:26:41;;;;;;;29.63;15.27;;;9.00;99.90;;;;;;5065668;28;20045;-64
2023/02/12 10:29:23;;;;;;;28.45;14.88;;;9.20;99.90;;;;;;5069319;28;20033;-64
2023/02/12 10:31:59;;;;;;;33.00;16.13;;;9.50;99.90;;;;;;5052765;28;20122;-65
2023/02/12 10:34:32;;;;;;;36.72;18.88;;;9.40;99.90;;;;;;5061967;28;20483;-65
2023/02/12 10:37:11;;;;;;;38.53;19.40;;;9.30;99.90;;;;;;5087485;28;20562;-64
2023/02/12 10:39:46;;;;;;;42.20;20.02;;;9.30;99.90;;;;;;5071175;28;20040;-65
2023/02/12 10:42:30;;;;;;;41.97;21.45;;;9.20;99.90;;;;;;5085771;28;20040;-64
2023/02/12 10:44:57;;;;;;;40.88;22.33;;;9.10;99.90;;;;;;5069249;28;20102;-64
2023/02/12 10:47:25;;;;;;;45.97;23.75;;;9.10;99.90;;;;;;5049487;28;20041;-65
2023/02/12 10:49:59;;;;;;;45.67;22.90;;;9.10;99.90;;;;;;5057745;28;20067;-63
2023/02/12 10:52:26;;;;;;;35.88;20.10;;;9.10;99.90;;;;;;5059602;28;20056;-64
2023/02/12 10:54:54;;;;;;;37.72;18.92;;;9.10;99.90;;;;;;5048980;28;20037;-65
2023/02/12 10:57:23;;;;;;;44.92;21.38;;;9.10;99.90;;;;;;5066323;28;20631;-65
2023/02/12 11:00:12;;;;;;;37.15;19.23;;;9.00;99.90;;;;;;5044994;28;20033;-65
2023/02/12 11:02:57;;;;;;;40.15;19.65;;;8.80;99.90;;;;;;5047864;28;20506;-65
2023/02/12 11:05:27;;;;;;;35.00;18.65;;;8.50;99.90;;;;;;5055068;28;20048;-65
2023/02/12 11:07:56;;;;;;;36.80;18.27;;;8.40;99.90;;;;;;5053715;28;20067;-64
2023/02/12 11:10:36;;;;;;;37.42;19.55;;;8.50;99.90;;;;;;5045682;28;20472;-65
2023/02/12 11:13:04;;;;;;;35.53;18.42;;;8.20;99.90;;;;;;5054029;28;20048;-65
2023/02/12 11:15:45;;;;;;;40.75;20.13;;;8.30;99.90;;;;;;5069973;28;20052;-64
2023/02/12 11:18:21;;;;;;;38.15;19.52;;;8.40;99.90;;;;;;5056500;28;20132;-64
2023/02/12 11:20:51;;;;;;;37.30;18.88;;;8.40;99.90;;;;;;5044497;28;20047;-65
2023/02/12 11:23:34;;;;;;;39.65;20.83;;;8.40;99.90;;;;;;5065430;28;20049;-65
2023/02/12 11:26:06;;;;;;;43.22;20.42;;;8.30;99.90;;;;;;5058401;28;20128;-66
2023/02/12 11:28:35;;;;;;;43.10;21.00;;;8.30;99.90;;;;;;5085640;28;20461;-64
2023/02/12 11:31:21;;;;;;;39.65;20.33;;;8.30;99.90;;;;;;5071049;28;20105;-65
2023/02/12 11:34:15;;;;;;;45.17;22.35;;;8.20;99.90;;;;;;5057858;28;20059;-64
2023/02/12 11:36:48;;;;;;;42.55;21.25;;;8.20;99.90;;;;;;5072397;28;20499;-65
2023/02/12 11:39:25;;;;;;;47.25;22.95;;;7.60;99.90;;;;;;5054816;28;20052;-65
2023/02/12 11:41:57;;;;;;;46.58;24.05;;;7.90;99.90;;;;;;5070454;28;20206;-64
2023/02/12 11:44:37;;;;;;;47.33;22.45;;;8.10;99.90;;;;;;5039291;28;20579;-64
2023/02/12 11:47:10;;;;;;;48.20;22.63;;;8.30;99.90;;;;;;5070592;28;20479;-65
2023/02/12 11:49:48;;;;;;;42.42;21.65;;;8.40;99.90;;;;;;5046053;28;20065;-65
2023/02/12 11:52:28;;;;;;;47.08;22.35;;;8.30;99.90;;;;;;5041503;28;20467;-64
2023/02/12 11:54:59;;;;;;;42.65;22.27;;;7.90;99.90;;;;;;5061347;28;20112;-63
2023/02/12 11:57:42;;;;;;;43.80;22.45;;;7.80;99.90;;;;;;5066912;28;20058;-64
2023/02/12 12:00:22;;;;;;;43.75;22.20;;;7.90;99.90;;;;;;5051316;28;20049;-64
2023/02/12 12:03:22;;;;;;;43.22;21.05;;;8.00;99.90;;;;;;5060156;28;20041;-65
2023/02/12 12:06:01;;;;;;;41.33;20.25;;;8.00;99.90;;;;;;5047253;28;20135;-65
2023/02/12 12:08:47;;;;;;;45.20;21.70;;;7.80;99.90;;;;;;5054018;28;20037;-64
2023/02/12 12:11:25;;;;;;;45.90;22.42;;;7.80;99.90;;;;;;5051238;28;20041;-64
2023/02/12 12:14:21;;;;;;;45.80;22.45;;;7.90;99.90;;;;;;5076375;28;20477;-64
2023/02/12 12:20:10;;;;;;;39.95;20.67;;;8.00;99.90;;;;;;5055874;28;20492;-65
2023/02/12 12:22:49;;;;;;;46.13;21.70;;;8.20;99.90;;;;;;5073539;28;20044;-65
2023/02/12 12:25:30;;;;;;;40.92;21.52;;;8.30;99.90;;;;;;5059408;28;20051;-64
2023/02/12 12:28:25;;;;;;;46.72;22.42;;;8.40;99.90;;;;;;5057248;28;20450;-64
2023/02/12 12:31:14;;;;;;;43.50;21.70;;;8.70;99.90;;;;;;5068222;28;20117;-65
2023/02/12 12:33:51;;;;;;;43.28;21.95;;;8.90;99.90;;;;;;5046079;28;20052;-64
2023/02/12 12:36:54;;;;;;;43.80;21.80;;;8.90;99.90;;;;;;5061000;28;20475;-65
2023/02/12 12:39:56;;;;;;;36.40;20.13;;;9.10;99.90;;;;;;5053003;28;20049;-65
2023/02/12 12:42:42;;;;;;;43.00;21.00;;;8.90;99.90;;;;;;5059947;28;20045;-65
2023/02/12 12:45:12;;;;;;;41.50;20.17;;;8.80;99.90;;;;;;5052750;28;20136;-65
2023/02/12 12:47:59;;;;;;;38.10;19.73;;;8.90;99.90;;;;;;5069774;28;20482;-65
2023/02/12 12:50:45;;;;;;;40.90;20.40;;;8.80;99.90;;;;;;5068773;28;20341;-67
2023/02/12 12:53:37;;;;;;;43.90;21.00;;;8.80;99.90;;;;;;5082573;28;20051;-67
2023/02/12 12:56:28;;;;;;;41.25;20.80;;;8.50;99.90;;;;;;5054153;28;20423;-66
2023/02/12 12:59:23;;;;;;;40.92;20.80;;;8.60;99.90;;;;;;5055605;28;20470;-67
2023/02/12 13:02:37;;;;;;;39.67;20.55;;;8.90;99.90;;;;;;5053674;28;20041;-65
2023/02/12 13:05:34;;;;;;;40.33;19.38;;;9.10;99.90;;;;;;5034591;28;20059;-65
2023/02/12 13:08:20;;;;;;;35.40;18.67;;;9.80;99.90;;;;;;5063627;28;20114;-67
2023/02/12 13:10:54;;;;;;;39.25;21.00;;;10.20;99.90;;;;;;5061260;28;20099;-67
2023/02/12 13:13:42;;;;;;;38.15;20.13;;;10.30;99.90;;;;;;5066063;28;20040;-66
2023/02/12 13:16:29;;;;;;;37.28;20.65;;;10.40;99.90;;;;;;5068120;28;20098;-67
2023/02/12 13:19:30;;;;;;;40.90;21.67;;;10.40;99.90;;;;;;5070009;28;20462;-66
2023/02/12 13:22:12;;;;;;;42.00;22.30;;;10.50;99.90;;;;;;5051528;28;20123;-67